Time;durP1;ratioP1;P1;durP2;ratioP2;P2;SDS_P1;SDS_P2;PMS_P1;PMS_P2;Temp;Humidity;BMP_temperature;BMP_pressure;BME280_temperature;BME280_humidity;BME280_pressure;Samples;Min_cycle;Max_cycle;Signal;HPM_P1;HPM_P2
2024/03/28 00:00:24;;;;;;;;;;;;;;;20.42;40.57;93248.84;10461317;28;2783;-65
2024/03/28 00:05:24;;;;;;;;;;;;;;;20.40;40.86;93259.72;10489705;28;2799;-65
2024/03/28 00:10:25;;;;;;;;;;;;;;;20.39;40.51;93262.66;10464860;28;2846;-65
2024/03/28 00:15:25;;;;;;;;;;;;;;;20.39;40.77;93255.53;10465002;28;3005;-65
2024/03/28 00:20:25;;;;;;;;;;;;;;;20.36;40.44;93229.88;10460906;28;2790;-65
2024/03/28 00:25:25;;;;;;;;;;;;;;;20.35;40.66;93217.84;10464911;28;2798;-65
2024/03/28 00:30:26;;;;;;;;;;;;;;;20.33;40.69;93227.94;10460854;28;2742;-64
2024/03/28 00:35:26;;;;;;;;;;;;;;;20.32;40.75;93223.75;10466495;28;2780;-65
2024/03/28 00:40:26;;;;;;;;;;;;;;;20.30;40.61;93222.56;10465783;28;2555;-64
2024/03/28 00:45:27;;;;;;;;;;;;;;;20.30;40.72;93215.41;10456877;28;2802;-64
2024/03/28 00:50:27;;;;;;;;;;;;;;;20.28;40.91;93215.00;10463334;28;2795;-64
2024/03/28 00:55:27;;;;;;;;;;;;;;;20.26;40.81;93217.94;10466245;28;2672;-64
2024/03/28 01:00:27;;;;;;;;;;;;;;;20.24;40.75;93214.88;10464576;28;2299;-64
2024/03/28 01:05:28;;;;;;;;;;;;;;;20.23;40.78;93213.38;10465545;28;2889;-65
2024/03/28 01:10:28;;;;;;;;;;;;;;;20.22;40.65;93203.94;10467818;28;2726;-65
2024/03/28 01:15:28;;;;;;;;;;;;;;;20.22;40.61;93197.91;10464874;28;2843;-69
2024/03/28 01:20:28;;;;;;;;;;;;;;;20.18;40.78;93195.16;10473230;28;2777;-65
2024/03/28 01:25:29;;;;;;;;;;;;;;;20.18;40.67;93189.13;10468584;28;2927;-64
2024/03/28 01:30:29;;;;;;;;;;;;;;;20.17;40.64;93192.84;10495677;28;2807;-64
2024/03/28 01:35:30;;;;;;;;;;;;;;;20.16;40.64;93201.81;10475904;28;2798;-64
2024/03/28 01:40:30;;;;;;;;;;;;;;;20.12;40.64;93207.00;10467281;28;2819;-64
2024/03/28 01:45:30;;;;;;;;;;;;;;;20.13;40.64;93202.50;10470314;28;2798;-64
2024/03/28 01:50:31;;;;;;;;;;;;;;;20.11;40.46;93205.44;10469167;28;2857;-64
2024/03/28 01:55:33;;;;;;;;;;;;;;;20.09;40.34;93196.38;10474781;28;2782;-65
2024/03/28 02:00:34;;;;;;;;;;;;;;;20.09;40.54;93188.50;10469453;28;2859;-65
2024/03/28 02:05:34;;;;;;;;;;;;;;;20.06;40.29;93181.25;10472557;28;2744;-64
2024/03/28 02:10:37;;;;;;;;;;;;;;;20.06;40.35;93187.28;10467748;28;2862;-64
2024/03/28 02:15:38;;;;;;;;;;;;;;;20.05;40.55;93177.84;10471356;28;2647;-64
2024/03/28 02:20:38;;;;;;;;;;;;;;;20.04;40.48;93162.41;10468170;28;2803;-64
2024/03/28 02:25:38;;;;;;;;;;;;;;;20.03;40.37;93155.63;10473653;28;2725;-64
2024/03/28 02:30:39;;;;;;;;;;;;;;;20.01;40.36;93144.69;10471410;28;2858;-64
2024/03/28 02:35:39;;;;;;;;;;;;;;;20.00;40.28;93157.06;10465196;28;2528;-64
2024/03/28 02:40:40;;;;;;;;;;;;;;;19.98;40.26;93147.97;10466423;28;2517;-64
2024/03/28 02:45:40;;;;;;;;;;;;;;;19.97;40.24;93143.81;10464036;28;2853;-63
2024/03/28 02:50:40;;;;;;;;;;;;;;;19.96;40.22;93147.53;10470051;28;2757;-64
2024/03/28 02:55:40;;;;;;;;;;;;;;;19.95;40.19;93156.50;10466246;28;2592;-64
2024/03/28 03:00:41;;;;;;;;;;;;;;;19.94;40.30;93158.38;10467446;28;2823;-64
2024/03/28 03:05:43;;;;;;;;;;;;;;;19.92;39.98;93162.44;10467537;28;2807;-64
2024/03/28 03:10:44;;;;;;;;;;;;;;;19.92;40.11;93167.69;10464738;28;2823;-64
2024/03/28 03:15:50;;;;;;;;;;;;;;;19.90;40.25;93168.03;10463432;28;2578;-64
2024/03/28 03:21:04;;;;;;;;;;;;;;;19.90;40.03;93180.41;10468244;28;2843;-64
2024/03/28 03:26:20;;;;;;;;;;;;;;;19.88;40.01;93185.22;10493443;28;2777;-64
2024/03/28 03:36:39;;;;;;;;;;;;;;;19.86;39.88;93195.28;10464423;28;2708;-64
2024/03/28 03:41:39;;;;;;;;;;;;;;;19.85;39.95;93188.50;10465545;28;2733;-64
2024/03/28 03:46:40;;;;;;;;;;;;;;;19.84;39.87;93202.75;10452318;28;2641;-64
2024/03/28 03:51:40;;;;;;;;;;;;;;;19.82;39.80;93203.09;10468458;28;2539;-64
2024/03/28 03:56:40;;;;;;;;;;;;;;;19.83;39.69;93188.06;10476027;28;2764;-64
2024/03/28 04:01:41;;;;;;;;;;;;;;;19.81;39.87;93195.50;10463334;28;2775;-64
2024/03/28 04:06:41;;;;;;;;;;;;;;;19.80;39.98;93196.63;10466888;28;2802;-64
2024/03/28 04:11:41;;;;;;;;;;;;;;;19.78;39.66;93186.44;10452408;28;2798;-64
2024/03/28 04:16:41;;;;;;;;;;;;;;;19.77;39.70;93181.50;10462778;28;2832;-64
2024/03/28 04:21:42;;;;;;;;;;;;;;;19.75;39.69;93173.16;10465070;28;2751;-64
2024/03/28 04:26:42;;;;;;;;;;;;;;;19.74;39.64;93175.03;10462857;28;2726;-64
2024/03/28 04:31:42;;;;;;;;;;;;;;;19.73;39.66;93176.13;10492028;28;2578;-63
2024/03/28 04:36:43;;;;;;;;;;;;;;;19.73;39.52;93184.00;10462692;28;2849;-63
2024/03/28 04:41:43;;;;;;;;;;;;;;;19.72;39.57;93192.25;10465584;28;2888;-65
2024/03/28 04:46:44;;;;;;;;;;;;;;;19.71;39.52;93195.94;10464010;28;2802;-65
2024/03/28 04:51:44;;;;;;;;;;;;;;;19.69;39.50;93183.13;10469105;28;2823;-65
2024/03/28 04:56:44;;;;;;;;;;;;;;;19.68;39.41;93178.22;10470243;28;2772;-65
2024/03/28 05:01:44;;;;;;;;;;;;;;;19.68;39.69;93172.97;10466455;28;2764;-65
2024/03/28 05:06:45;;;;;;;;;;;;;;;19.67;39.72;93169.56;10469041;28;2726;-65
2024/03/28 05:11:45;;;;;;;;;;;;;;;19.68;39.74;93175.59;10467283;28;2913;-65
2024/03/28 05:16:45;;;;;;;;;;;;;;;19.74;39.44;93185.53;10467626;28;2566;-64
2024/03/28 05:21:45;;;;;;;;;;;;;;;19.82;39.36;93181.28;10466266;28;2843;-64
2024/03/28 05:26:46;;;;;;;;;;;;;;;19.90;39.04;93172.50;10466478;28;2821;-64
2024/03/28 05:31:47;;;;;;;;;;;;;;;19.96;38.97;93163.28;10474377;28;2637;-64
2024/03/28 05:36:47;;;;;;;;;;;;;;;20.03;38.71;93153.75;10469598;28;2791;-64
2024/03/28 05:41:49;;;;;;;;;;;;;;;20.08;38.73;93150.91;10471219;28;2907;-65
2024/03/28 05:46:49;;;;;;;;;;;;;;;20.14;38.83;93143.53;10472304;28;2540;-64
2024/03/28 05:51:49;;;;;;;;;;;;;;;20.19;38.66;93138.84;10457531;28;2866;-64
2024/03/28 05:56:50;;;;;;;;;;;;;;;20.25;38.85;93137.53;10470376;28;2572;-64
2024/03/28 06:01:50;;;;;;;;;;;;;;;20.32;38.44;93149.34;10499707;28;2630;-64
2024/03/28 06:06:50;;;;;;;;;;;;;;;20.33;38.74;93141.09;10467144;28;2996;-64
2024/03/28 06:11:50;;;;;;;;;;;;;;;20.39;38.82;93149.53;10463062;28;2771;-64
2024/03/28 06:16:51;;;;;;;;;;;;;;;20.40;37.49;93143.94;10469708;28;2893;-62
2024/03/28 06:21:51;;;;;;;;;;;;;;;20.43;38.02;93153.78;10470037;28;2989;-61
2024/03/28 06:26:51;;;;;;;;;;;;;;;20.44;38.31;93163.22;10463361;28;2532;-60
2024/03/28 06:31:52;;;;;;;;;;;;;;;20.48;37.36;93176.47;10467472;28;2706;-63
2024/03/28 06:36:52;;;;;;;;;;;;;;;20.51;37.90;93171.31;10467027;28;2709;-63
2024/03/28 06:41:52;;;;;;;;;;;;;;;20.53;37.75;93163.84;10467315;28;2865;-60
2024/03/28 06:46:53;;;;;;;;;;;;;;;20.53;37.46;93173.59;10466427;28;2967;-61
2024/03/28 06:51:53;;;;;;;;;;;;;;;20.55;37.46;93153.75;10469303;28;2757;-64
2024/03/28 06:56:53;;;;;;;;;;;;;;;20.60;37.63;93140.34;10462859;28;2978;-64
2024/03/28 07:01:54;;;;;;;;;;;;;;;20.62;37.94;93140.78;10460324;28;2760;-66
2024/03/28 07:06:54;;;;;;;;;;;;;;;20.65;38.10;93142.72;10462767;28;2783;-62
2024/03/28 07:11:55;;;;;;;;;;;;;;;20.66;38.14;93140.88;10456897;28;2739;-65
2024/03/28 07:16:55;;;;;;;;;;;;;;;20.70;37.66;93134.59;10457115;28;2866;-64
2024/03/28 07:21:55;;;;;;;;;;;;;;;20.72;37.35;93124.50;10462772;28;2630;-64
2024/03/28 07:26:56;;;;;;;;;;;;;;;20.73;36.91;93125.28;10459183;28;2568;-65
2024/03/28 07:31:56;;;;;;;;;;;;;;;20.73;37.09;93120.75;10460650;28;2507;-64
2024/03/28 07:36:57;;;;;;;;;;;;;;;20.74;37.52;93113.63;10475155;28;2784;-66
2024/03/28 07:41:57;;;;;;;;;;;;;;;20.76;37.35;93117.47;10458057;28;2804;-66
2024/03/28 07:46:58;;;;;;;;;;;;;;;20.81;37.43;93124.34;10461288;28;2572;-65
2024/03/28 07:51:59;;;;;;;;;;;;;;;20.80;36.95;93139.38;10462252;28;2882;-66
2024/03/28 07:56:59;;;;;;;;;;;;;;;20.85;37.04;93138.38;10488101;28;2795;-65
2024/03/28 08:02:00;;;;;;;;;;;;;;;20.80;37.21;93113.06;10463450;28;2646;-64
2024/03/28 08:07:00;;;;;;;;;;;;;;;20.86;37.25;93089.88;10456272;28;2814;-65
2024/03/28 08:12:07;;;;;;;;;;;;;;;20.88;37.04;93085.03;10456495;28;2578;-68
2024/03/28 08:17:08;;;;;;;;;;;;;;;20.89;36.99;93089.97;10458243;28;2583;-64
2024/03/28 08:22:10;;;;;;;;;;;;;;;20.90;38.40;93094.13;10460537;28;2791;-64
2024/03/28 08:27:11;;;;;;;;;;;;;;;20.91;39.90;93100.16;10461392;28;2764;-64
2024/03/28 08:32:11;;;;;;;;;;;;;;;20.95;39.74;93112.31;10482604;28;2874;-67
2024/03/28 08:37:12;;;;;;;;;;;;;;;20.91;39.79;93129.13;10465227;28;2869;-67
2024/03/28 08:42:12;;;;;;;;;;;;;;;20.88;39.35;93130.56;10462124;28;3018;-68
2024/03/28 08:47:12;;;;;;;;;;;;;;;20.90;38.70;93138.88;10461697;28;2739;-67
2024/03/28 08:52:13;;;;;;;;;;;;;;;20.87;39.23;93155.38;10495098;28;2782;-68
2024/03/28 08:57:14;;;;;;;;;;;;;;;20.87;39.02;93173.81;10482096;28;2753;-67
2024/03/28 09:02:14;;;;;;;;;;;;;;;20.86;38.97;93171.47;10453016;28;2751;-67
2024/03/28 09:07:14;;;;;;;;;;;;;;;20.87;38.87;93168.53;10459648;28;2823;-67
2024/03/28 09:12:15;;;;;;;;;;;;;;;20.89;39.25;93147.91;10449080;28;2810;-67
2024/03/28 09:17:15;;;;;;;;;;;;;;;20.93;39.07;93167.19;10457574;28;2745;-66
2024/03/28 09:22:16;;;;;;;;;;;;;;;20.92;39.14;93170.13;10456015;28;2705;-66
2024/03/28 09:27:16;;;;;;;;;;;;;;;20.96;39.89;93177.03;10437110;28;2583;-67
2024/03/28 09:32:17;;;;;;;;;;;;;;;20.95;40.00;93191.31;10468917;28;2687;-68
2024/03/28 09:37:17;;;;;;;;;;;;;;;20.98;39.62;93209.06;10453323;28;2798;-67
2024/03/28 09:42:19;;;;;;;;;;;;;;;20.97;39.89;93210.19;10457697;28;2749;-69
2024/03/28 09:47:19;;;;;;;;;;;;;;;20.97;40.34;93252.31;10455624;28;2767;-68
2024/03/28 09:52:19;;;;;;;;;;;;;;;21.02;40.25;93275.78;10458854;28;2587;-66
2024/03/28 09:57:20;;;;;;;;;;;;;;;21.00;40.48;93293.00;10464592;28;2547;-66
2024/03/28 10:02:29;;;;;;;;;;;;;;;21.03;40.22;93323.97;10464199;28;2607;-66
2024/03/28 10:07:30;;;;;;;;;;;;;;;21.04;40.41;93330.78;10464866;28;2845;-66
2024/03/28 10:12:30;;;;;;;;;;;;;;;21.05;40.06;93335.72;10442330;28;2887;-67
2024/03/28 10:17:31;;;;;;;;;;;;;;;21.05;40.52;93366.56;10444909;28;2798;-66
2024/03/28 10:22:40;;;;;;;;;;;;;;;21.08;40.04;93375.66;10462202;28;2747;-69
2024/03/28 10:27:41;;;;;;;;;;;;;;;21.13;38.32;93428.88;10469757;28;2531;-67
2024/03/28 10:32:42;;;;;;;;;;;;;;;21.06;39.06;93466.31;10472574;28;2770;-67
2024/03/28 10:37:42;;;;;;;;;;;;;;;21.09;37.68;93496.50;10443497;28;2689;-67
2024/03/28 10:42:43;;;;;;;;;;;;;;;21.11;37.27;93510.09;10468037;28;2716;-67
2024/03/28 10:47:43;;;;;;;;;;;;;;;21.12;37.24;93534.59;10496808;28;2836;-68
2024/03/28 10:52:48;;;;;;;;;;;;;;;21.04;36.99;93576.50;10465918;28;2902;-68
2024/03/28 10:57:49;;;;;;;;;;;;;;;21.05;37.03;93612.28;10457508;28;2782;-68
2024/03/28 11:02:49;;;;;;;;;;;;;;;21.03;37.91;93632.94;10481322;28;2566;-69
2024/03/28 11:07:50;;;;;;;;;;;;;;;21.06;36.70;93653.31;10465290;28;2840;-69
2024/03/28 11:12:51;;;;;;;;;;;;;;;21.08;36.65;93657.50;10446143;28;2780;-69
2024/03/28 11:17:51;;;;;;;;;;;;;;;21.13;36.91;93686.28;10463745;28;2825;-69
2024/03/28 11:22:51;;;;;;;;;;;;;;;21.12;37.16;93711.88;10495192;28;2737;-69
2024/03/28 11:28:08;;;;;;;;;;;;;;;21.12;36.26;93713.72;10462078;28;2795;-68
2024/03/28 11:33:12;;;;;;;;;;;;;;;21.10;37.34;93731.72;10461840;28;2354;-69
2024/03/28 11:38:12;;;;;;;;;;;;;;;21.06;38.46;93753.44;10440967;28;2800;-63
2024/03/28 11:43:13;;;;;;;;;;;;;;;21.10;37.28;93758.06;10457766;28;2547;-67
2024/03/28 11:48:13;;;;;;;;;;;;;;;21.17;37.06;93768.84;10463863;28;2761;-68
2024/03/28 11:53:14;;;;;;;;;;;;;;;21.14;38.10;93764.22;10461340;28;2874;-68
2024/03/28 11:58:15;;;;;;;;;;;;;;;21.15;37.24;93768.38;10442743;28;2701;-68
2024/03/28 12:03:15;;;;;;;;;;;;;;;21.19;37.39;93764.78;10447313;28;2762;-68
2024/03/28 12:08:16;;;;;;;;;;;;;;;21.24;36.56;93751.41;10462144;28;2798;-67
2024/03/28 12:13:16;;;;;;;;;;;;;;;21.19;36.78;93742.94;10455213;28;2763;-67
2024/03/28 12:18:19;;;;;;;;;;;;;;;21.23;36.57;93754.34;10474069;28;2842;-68
2024/03/28 12:23:22;;;;;;;;;;;;;;;21.14;37.97;93756.31;10465248;28;2734;-70
2024/03/28 12:28:23;;;;;;;;;;;;;;;21.08;37.92;93753.13;10463713;28;2786;-69
2024/03/28 12:33:25;;;;;;;;;;;;;;;21.06;38.04;93761.34;10476869;28;2794;-68
2024/03/28 12:38:26;;;;;;;;;;;;;;;21.10;37.24;93772.00;10470609;28;2661;-67
2024/03/28 12:43:26;;;;;;;;;;;;;;;21.06;37.82;93753.44;10460329;28;2791;-67
2024/03/28 12:48:26;;;;;;;;;;;;;;;21.06;36.86;93747.41;10465254;28;2697;-68
2024/03/28 12:53:27;;;;;;;;;;;;;;;21.03;37.87;93755.94;10479329;28;2539;-67
2024/03/28 12:58:27;;;;;;;;;;;;;;;20.98;38.36;93762.16;10460822;28;2838;-67
2024/03/28 13:03:31;;;;;;;;;;;;;;;20.97;38.59;93773.78;10457309;28;2607;-67
2024/03/28 13:08:31;;;;;;;;;;;;;;;21.00;37.49;93781.03;10460036;28;2767;-67
2024/03/28 13:13:31;;;;;;;;;;;;;;;20.96;37.20;93780.13;10465704;28;2850;-67
2024/03/28 13:18:31;;;;;;;;;;;;;;;20.97;37.30;93789.59;10481505;28;2819;-67
2024/03/28 13:23:32;;;;;;;;;;;;;;;20.96;38.18;93795.94;10486176;28;2705;-67
2024/03/28 13:28:32;;;;;;;;;;;;;;;20.95;38.31;93791.00;10463897;28;2927;-68
2024/03/28 13:33:32;;;;;;;;;;;;;;;20.95;37.68;93791.78;10498963;28;2778;-72
2024/03/28 13:38:33;;;;;;;;;;;;;;;20.97;37.31;93791.44;10466098;28;2627;-71
2024/03/28 13:43:33;;;;;;;;;;;;;;;20.94;37.04;93807.88;10466496;28;2768;-70
2024/03/28 13:48:37;;;;;;;;;;;;;;;20.93;36.70;93787.94;10466436;28;2850;-70
2024/03/28 13:53:38;;;;;;;;;;;;;;;20.90;37.44;93799.88;10467619;28;2909;-69
2024/03/28 13:58:38;;;;;;;;;;;;;;;20.91;37.34;93806.69;10467245;28;2827;-70
2024/03/28 14:03:38;;;;;;;;;;;;;;;20.90;38.20;93809.63;10471755;28;2804;-70
2024/03/28 14:08:39;;;;;;;;;;;;;;;20.92;37.10;93824.00;10468555;28;2563;-72
2024/03/28 14:13:42;;;;;;;;;;;;;;;20.93;37.60;93820.31;10471750;28;3069;-71
2024/03/28 14:18:43;;;;;;;;;;;;;;;20.92;38.21;93815.34;10475709;28;2610;-70
2024/03/28 14:23:43;;;;;;;;;;;;;;;20.93;38.19;93816.91;10466560;28;2825;-70
2024/03/28 14:28:43;;;;;;;;;;;;;;;20.94;38.48;93819.19;10463207;28;2724;-70
2024/03/28 14:33:44;;;;;;;;;;;;;;;20.97;37.94;93825.69;10469379;28;2796;-73
2024/03/28 14:38:44;;;;;;;;;;;;;;;20.98;37.31;93830.63;10469080;28;2892;-69
2024/03/28 14:43:48;;;;;;;;;;;;;;;20.99;37.29;93824.28;10467052;28;2788;-69
2024/03/28 14:48:48;;;;;;;;;;;;;;;21.03;36.87;93834.97;10467182;28;2792;-69
2024/03/28 14:53:49;;;;;;;;;;;;;;;21.05;36.25;93838.84;10470972;28;2937;-69
2024/03/28 14:58:49;;;;;;;;;;;;;;;21.05;37.38;93843.31;10466217;28;2769;-69
2024/03/28 15:03:49;;;;;;;;;;;;;;;21.10;36.28;93860.81;10461941;28;2764;-69
2024/03/28 15:08:49;;;;;;;;;;;;;;;21.06;37.99;93814.03;10466790;28;2806;-69
2024/03/28 15:13:50;;;;;;;;;;;;;;;21.06;38.44;93839.63;10460675;28;2870;-68
2024/03/28 15:18:50;;;;;;;;;;;;;;;21.06;37.43;93850.16;10459818;28;2826;-68
2024/03/28 15:23:50;;;;;;;;;;;;;;;21.06;37.78;93845.63;10460103;28;2579;-68
2024/03/28 15:28:51;;;;;;;;;;;;;;;21.10;37.40;93850.28;10464877;28;2670;-69
2024/03/28 15:33:51;;;;;;;;;;;;;;;21.10;37.04;93840.50;10466636;28;2759;-71
2024/03/28 15:38:51;;;;;;;;;;;;;;;21.09;37.14;93862.66;10460989;28;2843;-70
2024/03/28 15:43:51;;;;;;;;;;;;;;;21.11;37.82;93859.69;10446662;28;2566;-69
2024/03/28 15:48:52;;;;;;;;;;;;;;;21.12;37.01;93869.16;10470377;28;2618;-68
2024/03/28 15:53:52;;;;;;;;;;;;;;;21.10;37.82;93884.50;10448450;28;2784;-68
2024/03/28 15:58:53;;;;;;;;;;;;;;;21.12;37.03;93888.38;10460603;28;2791;-69
2024/03/28 16:03:53;;;;;;;;;;;;;;;21.15;36.75;93900.13;10463849;28;2769;-69
2024/03/28 16:08:53;;;;;;;;;;;;;;;21.12;37.23;93895.50;10464919;28;2775;-68
2024/03/28 16:13:56;;;;;;;;;;;;;;;21.08;37.55;93917.22;10464794;28;2931;-67
2024/03/28 16:18:56;;;;;;;;;;;;;;;21.16;36.68;93928.03;10465135;28;2643;-67
2024/03/28 16:23:57;;;;;;;;;;;;;;;21.11;36.67;93912.38;10476879;28;2539;-67
2024/03/28 16:28:57;;;;;;;;;;;;;;;21.12;36.51;93930.53;10462178;28;2800;-66
2024/03/28 16:33:57;;;;;;;;;;;;;;;21.15;36.88;93911.44;10497417;28;2635;-66
2024/03/28 16:39:00;;;;;;;;;;;;;;;21.08;37.48;93924.38;10467750;28;2802;-73
2024/03/28 16:44:00;;;;;;;;;;;;;;;21.11;37.90;93907.13;10465756;28;2910;-66
2024/03/28 16:49:01;;;;;;;;;;;;;;;21.12;37.45;93929.75;10474945;28;2586;-70
2024/03/28 16:54:07;;;;;;;;;;;;;;;21.10;38.44;93951.16;10466478;28;2775;-72
2024/03/28 16:59:08;;;;;;;;;;;;;;;21.15;37.22;93947.53;10469099;28;2779;-70
2024/03/28 17:04:09;;;;;;;;;;;;;;;21.20;37.13;93939.47;10470507;28;2719;-70
2024/03/28 17:09:10;;;;;;;;;;;;;;;21.15;38.31;93979.16;10443212;28;2754;-75
2024/03/28 17:14:10;;;;;;;;;;;;;;;21.20;36.19;93986.88;10466493;28;2354;-70
2024/03/28 17:19:10;;;;;;;;;;;;;;;21.22;37.69;93974.94;10472145;28;2784;-73
2024/03/28 17:24:10;;;;;;;;;;;;;;;21.29;38.06;93982.34;10474162;28;2823;-63
2024/03/28 17:29:11;;;;;;;;;;;;;;;21.41;37.00;93977.91;10469918;28;2863;-61
2024/03/28 17:34:11;;;;;;;;;;;;;;;21.53;36.34;93998.31;10470966;28;2783;-59
2024/03/28 17:39:11;;;;;;;;;;;;;;;21.61;35.77;94008.03;10474936;28;2577;-66
2024/03/28 17:44:11;;;;;;;;;;;;;;;21.52;37.33;94005.44;10465765;28;2813;-69
2024/03/28 17:49:12;;;;;;;;;;;;;;;21.55;36.57;93996.91;10472034;28;2545;-59
2024/03/28 17:54:12;;;;;;;;;;;;;;;21.64;35.96;93988.91;10466378;28;2846;-61
2024/03/28 17:59:12;;;;;;;;;;;;;;;21.68;36.16;93998.50;10464775;28;2603;-62
2024/03/28 18:04:14;;;;;;;;;;;;;;;21.69;36.08;93994.00;10466821;28;2725;-72
2024/03/28 18:09:14;;;;;;;;;;;;;;;21.71;35.71;94000.50;10468459;28;2797;-70
2024/03/28 18:14:14;;;;;;;;;;;;;;;21.77;36.99;94016.88;10469040;28;2814;-63
2024/03/28 18:19:15;;;;;;;;;;;;;;;21.80;36.49;94035.47;10468242;28;2562;-70
2024/03/28 18:24:15;;;;;;;;;;;;;;;21.82;36.76;94054.41;10467522;28;2841;-75
2024/03/28 18:29:15;;;;;;;;;;;;;;;21.85;36.13;94066.19;10466337;28;2606;-64
2024/03/28 18:34:16;;;;;;;;;;;;;;;21.92;36.23;94068.31;10471142;28;2964;-67
2024/03/28 18:39:17;;;;;;;;;;;;;;;21.97;35.85;94066.25;10469668;28;2974;-65
2024/03/28 18:44:17;;;;;;;;;;;;;;;22.00;35.93;94089.38;10469489;28;2800;-62
2024/03/28 18:49:17;;;;;;;;;;;;;;;22.10;34.91;94110.09;10465716;28;2824;-66
2024/03/28 18:54:17;;;;;;;;;;;;;;;22.10;35.70;94115.38;10468312;28;2802;-65
2024/03/28 18:59:18;;;;;;;;;;;;;;;22.12;34.99;94122.97;10463740;28;2731;-62
2024/03/28 19:04:19;;;;;;;;;;;;;;;22.13;34.99;94133.22;10463308;28;2853;-74
2024/03/28 19:09:20;;;;;;;;;;;;;;;22.21;34.46;94139.50;10468647;28;2586;-71
2024/03/28 19:14:20;;;;;;;;;;;;;;;22.26;34.63;94139.31;10469124;28;2775;-65
2024/03/28 19:19:20;;;;;;;;;;;;;;;22.27;34.43;94157.47;10483234;28;2066;-67
2024/03/28 19:24:21;;;;;;;;;;;;;;;22.28;34.30;94159.00;10479769;28;1491;-67
2024/03/28 19:29:21;;;;;;;;;;;;;;;22.25;34.59;94170.22;10479154;28;2508;-71
2024/03/28 19:34:22;;;;;;;;;;;;;;;22.24;36.07;94179.22;10466168;28;2806;-62
2024/03/28 19:39:22;;;;;;;;;;;;;;;22.24;35.96;94195.06;10463602;28;2954;-63
2024/03/28 19:44:22;;;;;;;;;;;;;;;22.20;36.29;94194.16;10460943;28;2878;-61
2024/03/28 19:49:22;;;;;;;;;;;;;;;22.15;37.40;94191.72;10460639;28;2779;-59
2024/03/28 19:54:23;;;;;;;;;;;;;;;22.14;37.83;94198.09;10469141;28;2830;-68
2024/03/28 19:59:23;;;;;;;;;;;;;;;22.09;36.91;94211.44;10467790;28;2846;-64
2024/03/28 20:04:23;;;;;;;;;;;;;;;22.03;38.21;94223.28;10464349;28;2738;-65
2024/03/28 20:09:24;;;;;;;;;;;;;;;22.05;38.13;94226.38;10474668;28;2858;-62
2024/03/28 20:14:24;;;;;;;;;;;;;;;22.03;36.67;94239.13;10459358;28;2585;-64
2024/03/28 20:19:24;;;;;;;;;;;;;;;22.00;36.63;94239.75;10461464;28;2761;-73
2024/03/28 20:24:25;;;;;;;;;;;;;;;22.01;36.02;94243.94;10461497;28;2547;-68
2024/03/28 20:29:26;;;;;;;;;;;;;;;21.99;35.77;94246.13;10439506;28;2325;-69
2024/03/28 20:34:26;;;;;;;;;;;;;;;21.92;37.82;94248.50;10431099;28;2792;-69
2024/03/28 20:39:26;;;;;;;;;;;;;;;21.92;37.99;94255.63;10466954;28;2604;-64
2024/03/28 20:44:27;;;;;;;;;;;;;;;21.90;36.17;94266.50;10460853;28;2822;-67
2024/03/28 20:49:29;;;;;;;;;;;;;;;21.85;39.04;94269.31;10455312;28;2843;-66
2024/03/28 20:54:30;;;;;;;;;;;;;;;21.83;37.09;94272.28;10462363;28;2717;-64
2024/03/28 20:59:30;;;;;;;;;;;;;;;21.80;38.89;94288.69;10463246;28;2783;-65
2024/03/28 21:04:32;;;;;;;;;;;;;;;21.75;38.07;94288.09;10462213;28;2652;-66
2024/03/28 21:14:51;;;;;;;;;;;;;;;21.80;38.59;94295.84;10465341;28;2824;-71
2024/03/28 21:19:52;;;;;;;;;;;;;;;21.84;36.48;94299.44;10461481;28;2762;-72
2024/03/28 21:24:53;;;;;;;;;;;;;;;21.83;36.34;94295.22;10457306;28;2764;-72
2024/03/28 21:29:54;;;;;;;;;;;;;;;21.77;36.21;94291.19;10464734;28;2758;-72
2024/03/28 21:34:55;;;;;;;;;;;;;;;21.69;36.80;94289.34;10467093;28;2749;-72
2024/03/28 21:39:55;;;;;;;;;;;;;;;21.63;36.75;94295.88;10472499;28;2641;-72
2024/03/28 21:44:58;;;;;;;;;;;;;;;21.55;37.75;94294.06;10470136;28;2790;-73
2024/03/28 21:49:59;;;;;;;;;;;;;;;21.47;38.29;94294.84;10453928;28;2751;-72
2024/03/28 21:54:59;;;;;;;;;;;;;;;21.41;38.79;94306.66;10472132;28;2829;-73
2024/03/28 21:59:59;;;;;;;;;;;;;;;21.37;39.27;94311.00;10451749;28;2835;-73
2024/03/28 22:05:00;;;;;;;;;;;;;;;21.36;39.41;94328.66;10468208;28;2717;-70
2024/03/28 22:10:00;;;;;;;;;;;;;;;21.34;39.14;94351.13;10467355;28;2786;-71
2024/03/28 22:15:00;;;;;;;;;;;;;;;21.31;39.20;94357.81;10471824;28;2842;-71
2024/03/28 22:20:01;;;;;;;;;;;;;;;21.30;39.00;94363.38;10501419;28;2821;-70
2024/03/28 22:25:01;;;;;;;;;;;;;;;21.28;39.32;94362.94;10466701;28;2821;-70
2024/03/28 22:30:01;;;;;;;;;;;;;;;21.26;39.01;94380.91;10467857;28;2774;-70
2024/03/28 22:35:01;;;;;;;;;;;;;;;21.24;39.02;94375.97;10470237;28;2814;-70
2024/03/28 22:40:03;;;;;;;;;;;;;;;21.23;39.00;94376.25;10470817;28;2857;-74
2024/03/28 22:45:05;;;;;;;;;;;;;;;21.21;39.07;94379.19;10467103;28;2852;-72
2024/03/28 22:50:05;;;;;;;;;;;;;;;21.21;39.12;94383.69;10467639;28;2833;-73
2024/03/28 22:55:06;;;;;;;;;;;;;;;21.18;39.20;94384.31;10501096;28;2621;-73
2024/03/28 23:00:10;;;;;;;;;;;;;;;21.17;39.23;94388.03;10468068;28;2795;-72
2024/03/28 23:05:11;;;;;;;;;;;;;;;21.16;39.12;94395.19;10474107;28;2585;-71
2024/03/28 23:10:11;;;;;;;;;;;;;;;21.15;38.85;94400.75;10500694;28;2559;-70
2024/03/28 23:15:11;;;;;;;;;;;;;;;21.13;38.96;94403.69;10475633;28;2678;-70
2024/03/28 23:20:12;;;;;;;;;;;;;;;21.13;39.14;94397.63;10474617;28;2798;-71
2024/03/28 23:25:12;;;;;;;;;;;;;;;21.11;38.90;94410.34;10474610;28;2561;-71
2024/03/28 23:30:12;;;;;;;;;;;;;;;21.09;38.77;94415.94;10465072;28;2927;-71
2024/03/28 23:35:13;;;;;;;;;;;;;;;21.06;38.84;94409.41;10462929;28;2715;-72
2024/03/28 23:40:13;;;;;;;;;;;;;;;21.06;38.86;94400.75;10497632;28;2575;-70
2024/03/28 23:45:13;;;;;;;;;;;;;;;21.05;38.85;94407.09;10463932;28;2783;-71
2024/03/28 23:50:13;;;;;;;;;;;;;;;21.03;38.84;94396.88;10471145;28;2544;-70
2024/03/28 23:55:14;;;;;;;;;;;;;;;21.01;38.81;94388.47;10466255;28;3007;-70
